메인 페이지
METAR-TAF:

METAR-TAF

공항 :

앨리스 스프링스 공항

앨리스스프링스, 오스트레일리아

위도: 23-48S, 경도: 133-53E, 고도: 545m

현재 날씨관측

예보는 32분 전, 17:00시(UTC)에 발표되었습니다.
동북동6kt
온도 16°C
습도 34%
기압 1016 hPa
시정 10km 이상

METAR: YBAS 171700Z AUTO 07006KT 9999 // NCD 16/M00 Q1016 RF00.0/000.0 PRESENT WEATHER SENSOR US

시각: 03:02 (17:32 UTC)

예보

예보는 6 시간 18분 전, 11:14시(UTC)에 발표되었습니다.
예보 대상 시간: 17일 12시부터 18일 12시까지 (UTC)
5kt
시정 10km 이상
1500m 미만 상공 구름 및 적란운 없음
17일 2300시부터 (UTC)
동북동11kt
시정 10km 이상
1500m 미만 상공 구름 및 적란운 없음
18일 0900시부터 (UTC)
북북서7kt
시정 10km 이상
1500m 미만 상공 구름 및 적란운 없음

TAF: YBAS 171114Z 1712/1812 08005KT CAVOK FM172300 07011KT CAVOK FM180900 33007KT CAVOK

4,000개 이상의 공항 관측 자료 및 예보 (METAR 및 TAF 보고).

지도상에서 검색 가능한 기상관측소가 노란 점과 빨간 점으로 표시되어 있습니다.

기상관측소 명을 보려면 표시 위로 마우스를 이동하세요.

날씨 관측과 예보를 보려면 클릭하세요.

지도 변경 : 확대하려면 엑스 표시가 있는 녹색 버튼, 축소하려면 빼기 표시가 있는 녹색 버튼, 다음 페이지의 지도를 보려면 녹색 화살표를 클릭하세요.


METAR-TAF: